Terminal Aerodrome Forecast
Issued by NWS

Home | Current Version | Previous Version | Text Only | Print | Product List | Glossary On
Versions: 1 2 3 4 5 6 7 8 9 10 11 12 13 14 15 16 17
000
FTUS41 KPBZ 190520
TAFZZV
TAF
KZZV 190520Z 1906/2006 00000KT P6SM SKC
     FM191200 25008KT P6SM BKN120
     FM191900 25010KT P6SM VCTS BKN040CB
      TEMPO 1920/1922 5SM -TSRA
     FM192300 29005KT P6SM SCT040=

USA.gov is the U.S. government's official web portal to all federal, state and local government web resources and services.